Latest Weather Observations for Bairnsdale

IDV60801

Issued at 11:31 pm EDT Tuesday 31 March 2015 (issued every 30 minutes, with the page automatically refreshed every 10 minutes)

About weather observations | Map of weather stations | Latest weather observations for VIC | Other Formats
Station Details ID: 085279 Name: BAIRNSDALE AIRPORT Lat: -37.88 Lon: 147.57 Height: 49.4 m
Data from the previous 72 hours. | See also: Recent months at Bairnsdale
Date/Time
EDT
Temp
°C
App
Temp
°C
Dew
Point
Rel
Hum
%
Delta-T
°C
Wind Press
QNH
hPa
Press
MSL
hPa
Rain
since 9 am
mm
Dir
 
Spd
km/h
Gust
km/h
Spd
kts
Gust
kts
31/11:30pm 11.5 10.2 11.3 99 0.1 WSW 9 9 5 5 1023.6 1023.5 0.0
31/11:00pm 11.1 10.1 10.9 99 0.1 WNW 7 7 4 4 1023.4 1023.3 0.0
31/10:54pm 11.1 10.1 10.9 99 0.1 W 7 7 4 4 1023.4 1023.3 0.0
31/10:30pm 11.1 10.1 10.9 99 0.1 WSW 7 9 4 5 1023.5 1023.4 0.0
31/10:09pm 11.6 10.3 11.4 99 0.1 WSW 9 9 5 5 1023.4 1023.3 0.0
31/10:00pm 11.8 10.6 11.6 99 0.1 W 9 9 5 5 1023.5 1023.4 0.0
31/09:30pm 11.3 10.4 10.8 97 0.3 WSW 6 7 3 4 1023.5 1023.4 0.0
31/09:27pm 12.0 11.4 11.7 98 0.2 WSW 6 7 3 4 1023.5 1023.4 0.0
31/09:00pm 12.1 10.9 11.6 97 0.3 WSW 9 9 5 5 1023.5 1023.4 0.0
31/08:30pm 12.8 13.4 11.9 94 0.5 CALM 0 0 0 0 1023.7 1023.6 0.0
31/08:00pm 13.8 13.8 12.5 92 0.7 S 4 6 2 3 1023.5 1023.4 0.0
31/07:34pm 15.0 15.1 12.7 86 1.3 ESE 4 6 2 3 1023.3 1023.2 0.0
31/07:30pm 16.0 16.0 13.7 86 1.3 ESE 6 7 3 4 1023.2 1023.1 0.0
31/07:00pm 17.8 18.1 15.1 84 1.6 E 7 9 4 5 1023.2 1023.1 0.0
31/06:30pm 18.6 18.3 15.5 82 1.8 ESE 11 15 6 8 1023.1 1023.0 0.0
31/06:00pm 19.1 17.6 15.2 78 2.3 SE 17 20 9 11 1023.2 1023.1 0.0
31/05:30pm 19.6 17.5 15.3 76 2.5 SE 20 28 11 15 1022.9 1022.8 0.0
31/05:00pm 19.9 17.3 14.9 73 2.9 SE 22 28 12 15 1022.7 1022.6 0.0
31/04:30pm 20.1 16.9 14.2 69 3.4 SE 24 30 13 16 1022.5 1022.4 0.0
31/04:00pm 21.2 18.5 14.6 66 3.9 ESE 22 30 12 16 1022.8 1022.7 0.0
31/03:30pm 21.4 18.5 14.1 63 4.3 SE 22 30 12 16 1022.9 1022.8 0.0
31/03:00pm 21.5 18.9 13.9 62 4.4 SE 20 26 11 14 1023.1 1023.0 0.0
31/02:30pm 22.3 20.4 13.1 56 5.3 ESE 15 24 8 13 1023.3 1023.2 0.0
31/02:00pm 22.3 20.0 13.1 56 5.3 ESE 17 24 9 13 1023.6 1023.5 0.0
31/01:30pm 22.4 20.3 11.2 49 6.2 ESE 13 19 7 10 1024.2 1024.1 0.0
31/01:00pm 21.6 19.7 10.4 49 6.1 ENE 11 17 6 9 1025.1 1025.0 0.0
31/12:30pm 21.1 19.4 11.2 53 5.5 ENE 11 13 6 7 1025.8 1025.7 0.0
31/12:00pm 19.9 16.8 10.3 54 5.2 E 17 22 9 12 1026.3 1026.3 0.0
31/11:30am 20.0 17.6 10.1 53 5.3 E 13 20 7 11 1026.7 1026.7 0.0
31/11:00am 19.1 17.8 11.4 61 4.2 E 9 13 5 7 1027.1 1027.1 0.0
31/10:30am 17.6 17.0 11.6 68 3.3 SE 6 11 3 6 1027.2 1027.2 0.0
31/10:00am 14.8 14.8 13.5 92 0.7 SW 6 7 3 4 1027.3 1027.3 0.0
31/09:30am 12.9 13.0 12.7 99 0.1 NW 4 6 2 3 1027.2 1027.2 0.0
31/09:00am 11.0 10.1 10.8 99 0.1 WNW 6 9 3 5 1027.0 1027.0 0.0
31/08:30am 9.7 7.9 9.6 99 0.0 NNW 9 11 5 6 1026.5 1026.5 0.0
31/08:01am 8.9 6.9 8.8 99 0.0 NNW 9 11 5 6 1026.5 1026.5 0.0
31/08:00am 8.8 6.8 8.7 99 0.0 NNW 9 11 5 6 1026.5 1026.5 0.0
31/07:35am 7.7 7.1 7.6 99 0.0 CALM 0 0 0 0 1026.3 1026.3 0.0
31/07:30am 7.7 7.1 7.6 99 0.0 CALM 0 0 0 0 1026.3 1026.3 0.0
31/07:00am 6.1 4.0 6.0 99 0.0 WNW 6 7 3 4 1026.3 1026.3 0.0
31/06:30am 7.0 5.0 6.9 99 0.0 NW 7 7 4 4 1025.9 1025.8 0.0
31/06:00am 8.1 5.9 8.0 99 0.0 NNW 9 11 5 6 1025.6 1025.5 0.0
31/05:52am 8.1 5.9 8.0 99 0.0 NNW 9 11 5 6 1025.5 1025.4 0.0
31/05:30am 8.9 6.9 8.8 99 0.0 NNW 9 9 5 5 1025.6 1025.5 0.0
31/05:00am 8.3 6.6 8.2 99 0.0 NW 7 9 4 5 1025.7 1025.6 0.0
31/04:57am 8.4 6.7 8.3 99 0.0 NW 7 9 4 5 1025.7 1025.6 0.0
31/04:30am 8.4 6.7 8.3 99 0.0 NW 7 9 4 5 1025.6 1025.5 0.0
31/04:00am 8.6 6.6 8.5 99 0.0 NNW 9 9 5 5 1025.7 1025.6 0.0
31/03:30am 8.5 8.1 8.4 99 0.0 CALM 0 7 0 4 1025.8 1025.7 0.0
31/03:11am 9.0 8.0 8.9 99 0.0 NNW 4 7 2 4 1026.0 1025.9 0.0
31/03:02am 9.1 7.6 9.0 99 0.0 NNW 7 7 4 4 1026.0 1025.9 0.0
31/03:00am 9.1 7.6 9.0 99 0.0 NNW 7 9 4 5 1026.0 1025.9 0.0
31/02:39am 8.4 7.3 8.3 99 0.0 WNW 4 6 2 3 1026.1 1026.0 0.0
31/02:32am 9.9 9.1 9.8 99 0.1 WNW 4 6 2 3 1026.2 1026.2 0.0
31/02:30am 9.8 8.6 9.7 99 0.1 WNW 6 6 3 3 1026.2 1026.2 0.0
31/02:00am 9.0 7.6 8.9 99 0.0 WNW 6 7 3 4 1026.3 1026.3 0.0
31/01:30am 10.4 9.4 10.2 99 0.1 NW 6 7 3 4 1026.3 1026.3 0.0
31/01:19am 10.2 9.1 10.0 99 0.1 NW 6 7 3 4 1026.2 1026.2 0.0
31/01:00am 10.2 8.5 10.0 99 0.1 NW 9 9 5 5 1026.3 1026.3 0.0
31/12:30am 10.9 9.4 10.7 99 0.1 NNW 9 11 5 6 1026.5 1026.5 0.0
31/12:06am 11.6 10.3 11.4 99 0.1 NNW 9 11 5 6 1026.6 1026.6 0.0
31/12:00am 11.9 10.7 11.7 99 0.1 NNW 9 9 5 5 1026.6 1026.6 0.0
 
Date/Time
EDT
Temp
°C
App
Temp
°C
Dew
Point
Rel
Hum
%
Delta-T
°C
Wind Press
QNH
hPa
Press
MSL
hPa
Rain
since 9 am
mm
Dir
 
Spd
km/h
Gust
km/h
Spd
kts
Gust
kts
30/11:47pm 11.9 11.1 11.6 98 0.2 NNW 7 9 4 5 1026.8 1026.8 0.0
30/11:30pm 12.3 11.6 12.1 99 0.1 NNW 7 9 4 5 1027.0 1027.0 0.0
30/11:23pm 12.0 11.2 11.7 98 0.2 NNW 7 7 4 4 1027.0 1027.0 0.0
30/11:00pm 11.1 10.0 10.5 96 0.3 N 7 7 4 4 1027.1 1027.1 0.0
30/10:37pm 10.8 10.1 9.9 94 0.5 NNE 4 6 2 3 1027.1 1027.1 0.0
30/10:30pm 10.7 10.7 9.8 94 0.5 CALM 0 6 0 3 1027.1 1027.1 0.0
30/10:00pm 11.3 10.6 10.2 93 0.6 NNE 4 6 2 3 1027.0 1027.0 0.0
30/09:30pm 12.6 11.9 11.3 92 0.7 NNE 6 7 3 4 1026.8 1026.8 0.0
30/09:00pm 13.1 12.4 11.3 89 0.9 NE 6 7 3 4 1026.6 1026.6 0.0
30/08:30pm 13.4 12.9 10.6 83 1.5 E 4 6 2 3 1026.3 1026.3 0.0
30/08:00pm 15.3 14.6 11.3 77 2.1 E 6 7 3 4 1025.9 1025.8 0.0
30/07:30pm 16.4 15.3 11.8 74 2.5 E 9 9 5 5 1025.5 1025.4 0.0
30/07:00pm 17.2 15.8 11.0 67 3.3 E 9 11 5 6 1025.1 1025.0 0.0
30/06:30pm 18.3 16.2 11.1 63 3.9 SE 13 17 7 9 1024.7 1024.6 0.0
30/06:00pm 18.9 15.5 10.5 58 4.5 SE 19 24 10 13 1024.2 1024.1 0.0
30/05:30pm 19.8 15.6 11.0 57 4.8 SE 24 28 13 15 1023.7 1023.6 0.0
30/05:00pm 20.9 16.3 9.8 49 6.0 SSE 24 32 13 17 1023.2 1023.1 0.0
30/04:30pm 21.9 17.5 10.4 48 6.3 SE 24 30 13 16 1022.9 1022.8 0.0
30/04:00pm 23.1 19.5 9.8 43 7.2 SE 19 28 10 15 1022.6 1022.5 0.0
30/03:30pm 23.1 19.4 10.2 44 7.1 SSE 20 28 11 15 1022.7 1022.6 0.0
30/03:00pm 23.4 20.6 10.1 43 7.3 SSE 15 22 8 12 1022.5 1022.4 0.0
30/02:30pm 23.5 21.0 10.9 45 7.0 SSE 15 20 8 11 1022.5 1022.4 0.0
30/02:00pm 23.5 21.2 10.6 44 7.1 S 13 20 7 11 1022.8 1022.7 0.0
30/01:30pm 23.7 22.2 10.7 44 7.2 SW 9 20 5 11 1023.1 1023.0 0.0
30/01:00pm 22.9 21.2 10.0 44 7.0 E 9 13 5 7 1023.5 1023.4 0.0
30/12:30pm 22.5 21.7 9.6 44 7.0 NNE 4 11 2 6 1023.8 1023.7 0.0
30/12:00pm 21.4 20.2 10.3 49 6.0 NNW 7 17 4 9 1024.0 1023.9 0.0
30/11:30am 20.7 19.6 10.8 53 5.4 ENE 7 13 4 7 1024.4 1024.3 0.0
30/11:00am 19.6 19.1 10.9 57 4.7 NNW 4 9 2 5 1024.7 1024.6 0.0
30/10:30am 17.9 17.3 10.5 62 4.0 NNW 4 9 2 5 1024.8 1024.7 0.0
30/10:00am 15.1 14.4 11.3 78 2.0 NW 6 9 3 5 1024.8 1024.7 0.0
30/09:30am 12.8 11.9 12.6 99 0.1 NNW 9 11 5 6 1024.7 1024.6 0.0
30/09:00am 11.0 9.6 10.8 99 0.1 N 9 11 5 6 1024.4 1024.3 0.0
30/08:30am 9.2 7.9 9.1 99 0.0 N 6 7 3 4 1024.3 1024.2 0.0
30/08:16am 8.4 7.6 8.3 99 0.0 N 2 7 1 4 1024.2 1024.1 0.0
30/08:00am 7.4 6.4 7.3 99 0.0 NNW 2 6 1 3 1024.1 1024.0 0.0
30/07:43am 7.0 6.3 6.9 99 0.0 CALM 0 6 0 3 1024.1 1024.0 0.0
30/07:30am 6.7 4.8 6.6 99 0.0 NW 6 7 3 4 1024.0 1023.9 0.0
30/07:09am 7.6 5.9 7.5 99 0.0 NW 6 7 3 4 1023.8 1023.7 0.0
30/07:00am 7.8 6.1 7.7 99 0.0 NW 6 9 3 5 1023.7 1023.6 0.0
30/06:30am 7.3 4.6 7.2 99 0.0 NW 11 13 6 7 1023.3 1023.2 0.0
30/06:00am 7.5 5.2 7.4 99 0.0 NW 9 11 5 6 1023.0 1022.9 0.0
30/05:49am 7.3 4.9 7.2 99 0.0 NW 9 11 5 6 1023.0 1022.9 0.0
30/05:30am 6.8 4.3 6.7 99 0.0 NW 9 13 5 7 1022.9 1022.8 0.0
30/05:00am 6.8 4.3 6.7 99 0.0 NW 9 13 5 7 1022.9 1022.8 0.0
30/04:30am 7.3 4.9 7.2 99 0.0 NW 9 11 5 6 1023.0 1022.9 0.0
30/04:28am 7.3 4.9 7.2 99 0.0 NW 9 11 5 6 1023.0 1022.9 0.0
30/04:09am 7.3 4.9 7.2 99 0.0 NW 9 11 5 6 1023.1 1023.0 0.0
30/04:00am 8.3 6.2 8.2 99 0.0 NNW 9 11 5 6 1023.1 1023.0 0.0
30/03:30am 7.3 4.9 7.0 98 0.1 NW 9 11 5 6 1023.2 1023.1 0.0
30/03:15am 8.9 6.9 8.8 99 0.0 NNW 9 11 5 6 1023.2 1023.1 0.0
30/03:00am 9.7 7.9 9.6 99 0.0 NW 9 9 5 5 1023.3 1023.2 0.0
30/02:30am 9.8 8.1 9.7 99 0.1 WNW 9 11 5 6 1023.6 1023.5 0.0
30/02:00am 9.2 7.3 9.1 99 0.0 NW 9 11 5 6 1023.8 1023.7 0.0
30/01:30am 9.5 7.3 9.4 99 0.0 NW 11 13 6 7 1023.9 1023.8 0.0
30/01:04am 10.4 9.2 10.2 99 0.1 NW 7 9 4 5 1023.8 1023.7 0.0
30/01:02am 10.4 9.2 10.2 99 0.1 NW 7 9 4 5 1023.8 1023.7 0.0
30/01:00am 10.4 9.2 10.2 99 0.1 NW 7 9 4 5 1023.8 1023.7 0.0
30/12:30am 10.5 9.5 10.3 99 0.1 NW 6 7 3 4 1023.8 1023.7 0.0
30/12:07am 10.2 8.8 9.7 97 0.3 NW 7 7 4 4 1024.0 1023.9 0.0
30/12:00am 11.2 10.4 11.0 99 0.1 NW 6 7 3 4 1024.1 1024.0 0.0
 
Date/Time
EDT
Temp
°C
App
Temp
°C
Dew
Point
Rel
Hum
%
Delta-T
°C
Wind Press
QNH
hPa
Press
MSL
hPa
Rain
since 9 am
mm
Dir
 
Spd
km/h
Gust
km/h
Spd
kts
Gust
kts
29/11:30pm 10.5 9.2 10.0 97 0.3 NW 7 9 4 5 1024.4 1024.3 0.0
29/11:06pm 11.3 11.6 11.0 98 0.2 CALM 0 0 0 0 1024.4 1024.3 0.0
29/11:00pm 10.7 10.8 10.1 96 0.3 CALM 0 0 0 0 1024.4 1024.3 0.0
29/10:41pm 10.4 10.3 9.6 95 0.4 CALM 0 0 0 0 1024.4 1024.3 0.0
29/10:30pm 10.6 10.6 9.8 95 0.4 CALM 0 0 0 0 1024.4 1024.3 0.0
29/10:00pm 10.8 10.8 9.7 93 0.6 CALM 0 0 0 0 1024.3 1024.2 0.0
29/09:30pm 10.1 9.8 8.5 90 0.8 CALM 0 0 0 0 1024.0 1023.9 0.0
29/09:00pm 11.0 10.8 9.1 88 0.9 CALM 0 0 0 0 1023.7 1023.6 0.0
29/08:30pm 12.8 12.4 9.8 82 1.5 NE 2 6 1 3 1023.2 1023.1 0.0
29/08:00pm 14.4 13.3 10.8 79 1.9 ENE 7 9 4 5 1022.8 1022.7 0.0
29/07:30pm 14.6 12.9 10.0 74 2.4 E 9 11 5 6 1022.3 1022.2 0.0
29/07:00pm 16.3 14.4 10.6 69 3.0 ESE 11 13 6 7 1021.8 1021.7 0.0
29/06:30pm 17.5 14.6 10.9 65 3.6 SE 17 20 9 11 1021.3 1021.2 0.0
29/06:00pm 18.1 14.6 11.0 63 3.8 SSE 20 24 11 13 1021.0 1020.9 0.0
29/05:30pm 18.9 14.7 11.0 60 4.3 SE 24 32 13 17 1020.6 1020.5 0.0
29/05:00pm 20.4 15.9 10.2 52 5.5 SSE 24 32 13 17 1020.2 1020.1 0.0
29/04:30pm 22.5 18.6 9.6 44 7.0 SSE 20 30 11 16 1019.8 1019.7 0.0
29/04:00pm 23.8 19.8 9.0 39 8.0 SSW 20 32 11 17 1019.8 1019.7 0.0
29/03:30pm 23.7 20.4 9.7 41 7.6 SSW 17 26 9 14 1019.9 1019.8 0.0
29/03:00pm 23.1 18.7 9.1 41 7.5 SW 22 30 12 16 1020.1 1020.0 0.0
29/02:30pm 23.2 20.5 8.9 40 7.7 S 13 20 7 11 1020.3 1020.2 0.0
29/02:00pm 23.4 20.8 7.9 37 8.2 SSW 11 24 6 13 1020.5 1020.4 0.0
29/01:30pm 23.4 20.3 8.7 39 7.9 SW 15 24 8 13 1020.9 1020.8 0.0
29/01:00pm 22.2 18.5 8.0 40 7.4 WNW 17 24 9 13 1021.5 1021.4 0.0
29/12:30pm 21.8 18.6 8.3 42 7.1 W 15 22 8 12 1021.9 1021.8 0.0
29/12:00pm 21.6 19.7 9.2 45 6.6 NW 9 15 5 8 1022.3 1022.2 0.0
29/11:30am 19.9 17.8 9.8 52 5.4 NNW 11 19 6 10 1022.6 1022.5 0.0
29/11:00am 18.0 16.7 9.9 59 4.3 WNW 7 13 4 7 1023.0 1022.9 0.0
29/10:30am 16.4 14.7 9.8 65 3.5 NW 9 15 5 8 1023.3 1023.2 0.0
29/10:00am 14.8 13.1 10.0 73 2.5 NW 9 11 5 6 1023.3 1023.2 0.0
29/09:30am 13.2 12.1 12.1 93 0.6 WNW 9 13 5 7 1023.5 1023.4 0.0
29/09:00am 11.0 8.8 10.8 99 0.1 WNW 13 15 7 8 1023.3 1023.2 0.0
29/08:30am 9.1 6.8 9.0 99 0.0 WNW 11 15 6 8 1023.1 1023.0 0.0
29/08:00am 6.2 3.2 6.1 99 0.0 NW 11 11 6 6 1022.6 1022.5 0.0
29/07:30am 5.8 3.1 5.5 98 0.1 NW 9 13 5 7 1022.0 1021.9 0.0
29/07:00am 7.0 3.8 6.9 99 0.0 WNW 13 17 7 9 1021.6 1021.5 0.0
29/06:30am 6.6 4.1 6.5 99 0.0 WNW 9 13 5 7 1021.4 1021.3 0.0
29/06:10am 7.5 4.4 7.4 99 0.0 WNW 13 15 7 8 1021.3 1021.2 0.0
29/06:00am 6.9 4.5 6.8 99 0.0 W 9 11 5 6 1021.3 1021.2 0.0
29/05:30am 6.7 4.2 6.6 99 0.0 WNW 9 9 5 5 1020.8 1020.7 0.0
29/05:12am 7.0 5.0 6.9 99 0.0 WNW 7 9 4 5 1020.7 1020.6 0.0
29/05:00am 6.2 4.0 6.1 99 0.0 NW 7 11 4 6 1020.7 1020.6 0.0
29/04:30am 6.0 3.3 5.7 98 0.1 NW 9 11 5 6 1020.7 1020.6 0.0
29/04:02am 6.7 4.2 6.4 98 0.1 NW 9 11 5 6 1020.7 1020.6 0.0
29/04:00am 6.7 4.2 6.4 98 0.1 NW 9 11 5 6 1020.7 1020.6 0.0
29/03:49am 7.1 4.7 7.0 99 0.0 NW 9 11 5 6 1020.7 1020.6 0.0
29/03:36am 7.1 4.3 7.0 99 0.0 NW 11 13 6 7 1020.8 1020.7 0.0
29/03:30am 7.3 4.6 7.2 99 0.0 NW 11 13 6 7 1020.9 1020.8 0.0
29/03:20am 7.4 4.7 7.3 99 0.0 NW 11 13 6 7 1021.0 1020.9 0.0
29/03:00am 6.6 4.0 6.3 98 0.1 NW 9 9 5 5 1021.2 1021.1 0.0
29/02:30am 6.6 4.0 6.2 97 0.2 NW 9 9 5 5 1021.5 1021.4 0.0
29/02:03am 7.6 5.6 7.2 97 0.2 NNW 7 7 4 4 1021.6 1021.5 0.0
29/02:00am 8.0 6.1 7.6 97 0.2 NNW 7 7 4 4 1021.5 1021.4 0.0
29/01:30am 7.8 6.8 7.2 96 0.3 NW 2 7 1 4 1021.8 1021.7 0.0
29/01:00am 8.6 7.0 8.0 96 0.3 NW 6 6 3 3 1022.0 1021.9 0.0
29/12:34am 8.9 7.3 8.0 94 0.4 NNW 6 7 3 4 1022.1 1022.0 0.0
29/12:30am 9.3 7.8 8.4 94 0.4 NNW 6 7 3 4 1022.1 1022.0 0.0
29/12:00am 10.2 8.3 9.1 93 0.5 N 9 9 5 5 1022.3 1022.2 0.0

Other Formats:

Comma delimited format used in spreadsheet applications
http://www.bom.gov.au/fwo/IDV60801/IDV60801.94912.axf

JavaScript Object Notation format (JSON) in row-major order
http://www.bom.gov.au/fwo/IDV60801/IDV60801.94912.json